sensor_id;sensor_type;location;lat;lon;timestamp;pressure;altitude;pressure_sealevel;temperature;humidity
20909;BME280;10614;53.198;6.570;2023-07-08T00:01:38;102043.53;;;19.80;67.55
20909;BME280;10614;53.198;6.570;2023-07-08T00:03:42;102052.44;;;19.81;68.66
20909;BME280;10614;53.198;6.570;2023-07-08T00:05:44;102042.94;;;19.75;68.25
20909;BME280;10614;53.198;6.570;2023-07-08T00:07:48;102037.09;;;19.69;69.05
20909;BME280;10614;53.198;6.570;2023-07-08T00:09:50;102040.66;;;19.69;68.87
20909;BME280;10614;53.198;6.570;2023-07-08T00:11:52;102042.03;;;19.60;69.54
20909;BME280;10614;53.198;6.570;2023-07-08T00:13:54;102044.13;;;19.55;68.77
20909;BME280;10614;53.198;6.570;2023-07-08T00:15:56;102048.69;;;19.53;69.77
20909;BME280;10614;53.198;6.570;2023-07-08T00:17:59;102044.28;;;19.52;69.98
20909;BME280;10614;53.198;6.570;2023-07-08T00:20:17;102040.09;;;19.48;70.55
20909;BME280;10614;53.198;6.570;2023-07-08T00:22:21;102046.72;;;19.41;70.37
20909;BME280;10614;53.198;6.570;2023-07-08T00:24:25;102038.72;;;19.41;70.85
20909;BME280;10614;53.198;6.570;2023-07-08T00:26:29;102044.13;;;19.39;71.03
20909;BME280;10614;53.198;6.570;2023-07-08T00:28:31;102038.22;;;19.34;71.16
20909;BME280;10614;53.198;6.570;2023-07-08T00:30:33;102036.41;;;19.35;70.98
20909;BME280;10614;53.198;6.570;2023-07-08T00:32:35;102041.03;;;19.31;71.17
20909;BME280;10614;53.198;6.570;2023-07-08T00:34:43;102037.78;;;19.26;71.62
20909;BME280;10614;53.198;6.570;2023-07-08T00:36:46;102045.97;;;19.23;71.43
20909;BME280;10614;53.198;6.570;2023-07-08T00:38:48;102038.31;;;19.17;71.25
20909;BME280;10614;53.198;6.570;2023-07-08T00:40:51;102048.84;;;19.20;71.77
20909;BME280;10614;53.198;6.570;2023-07-08T00:42:53;102043.75;;;19.15;71.69
20909;BME280;10614;53.198;6.570;2023-07-08T00:44:55;102039.72;;;19.08;72.58
20909;BME280;10614;53.198;6.570;2023-07-08T00:47:02;102045.13;;;19.07;72.62
20909;BME280;10614;53.198;6.570;2023-07-08T00:49:14;102037.13;;;19.07;72.50
20909;BME280;10614;53.198;6.570;2023-07-08T00:51:17;102039.00;;;19.05;72.31
20909;BME280;10614;53.198;6.570;2023-07-08T00:53:28;102049.94;;;19.00;72.94
20909;BME280;10614;53.198;6.570;2023-07-08T00:55:30;102046.59;;;18.96;72.30
20909;BME280;10614;53.198;6.570;2023-07-08T00:57:36;102043.16;;;18.94;72.88
20909;BME280;10614;53.198;6.570;2023-07-08T00:59:44;102037.97;;;18.91;73.81
20909;BME280;10614;53.198;6.570;2023-07-08T01:01:48;102038.84;;;18.92;73.52
20909;BME280;10614;53.198;6.570;2023-07-08T01:03:53;102025.84;;;18.86;73.88
20909;BME280;10614;53.198;6.570;2023-07-08T01:05:57;102029.38;;;18.86;73.57
20909;BME280;10614;53.198;6.570;2023-07-08T01:08:03;102029.56;;;18.83;74.21
20909;BME280;10614;53.198;6.570;2023-07-08T01:10:10;102024.56;;;18.77;73.98
20909;BME280;10614;53.198;6.570;2023-07-08T01:12:17;102030.81;;;18.76;74.23
20909;BME280;10614;53.198;6.570;2023-07-08T01:14:21;102028.22;;;18.74;74.69
20909;BME280;10614;53.198;6.570;2023-07-08T01:16:24;102028.28;;;18.73;74.65
20909;BME280;10614;53.198;6.570;2023-07-08T01:18:26;102019.03;;;18.64;74.49
20909;BME280;10614;53.198;6.570;2023-07-08T01:20:28;102035.69;;;18.68;74.88
20909;BME280;10614;53.198;6.570;2023-07-08T01:22:31;102025.28;;;18.63;74.60
20909;BME280;10614;53.198;6.570;2023-07-08T01:24:35;102016.75;;;18.56;75.25
20909;BME280;10614;53.198;6.570;2023-07-08T01:26:41;102009.72;;;18.55;74.83
20909;BME280;10614;53.198;6.570;2023-07-08T01:28:44;102030.09;;;18.56;75.47
20909;BME280;10614;53.198;6.570;2023-07-08T01:30:46;102023.28;;;18.51;74.93
20909;BME280;10614;53.198;6.570;2023-07-08T01:32:54;102018.22;;;18.46;75.42
20909;BME280;10614;53.198;6.570;2023-07-08T01:34:59;102023.53;;;18.46;75.96
20909;BME280;10614;53.198;6.570;2023-07-08T01:37:04;102016.41;;;18.47;75.73
20909;BME280;10614;53.198;6.570;2023-07-08T01:39:11;102010.41;;;18.43;76.63
20909;BME280;10614;53.198;6.570;2023-07-08T01:41:14;102010.41;;;18.43;76.18
20909;BME280;10614;53.198;6.570;2023-07-08T01:43:16;102008.75;;;18.41;76.29
20909;BME280;10614;53.198;6.570;2023-07-08T01:45:20;102007.13;;;18.38;75.79
20909;BME280;10614;53.198;6.570;2023-07-08T01:47:22;102000.06;;;18.37;76.66
20909;BME280;10614;53.198;6.570;2023-07-08T01:49:25;101998.50;;;18.33;76.44
20909;BME280;10614;53.198;6.570;2023-07-08T01:51:31;101988.97;;;18.29;77.42
20909;BME280;10614;53.198;6.570;2023-07-08T01:53:35;101990.75;;;18.28;77.12
20909;BME280;10614;53.198;6.570;2023-07-08T01:55:38;101987.41;;;18.25;77.33
20909;BME280;10614;53.198;6.570;2023-07-08T01:57:40;101984.81;;;18.23;78.59
20909;BME280;10614;53.198;6.570;2023-07-08T01:59:45;101984.13;;;18.20;78.40
20909;BME280;10614;53.198;6.570;2023-07-08T02:01:46;101989.47;;;18.20;78.26
20909;BME280;10614;53.198;6.570;2023-07-08T02:03:50;101990.56;;;18.16;78.81
20909;BME280;10614;53.198;6.570;2023-07-08T02:05:52;101979.28;;;18.10;78.58
20909;BME280;10614;53.198;6.570;2023-07-08T02:07:54;101975.84;;;18.08;79.08
20909;BME280;10614;53.198;6.570;2023-07-08T02:09:56;101977.91;;;18.03;78.55
20909;BME280;10614;53.198;6.570;2023-07-08T02:12:00;101986.81;;;18.02;79.23
20909;BME280;10614;53.198;6.570;2023-07-08T02:14:02;101981.59;;;18.01;79.32
20909;BME280;10614;53.198;6.570;2023-07-08T02:16:06;101980.72;;;18.00;79.47
20909;BME280;10614;53.198;6.570;2023-07-08T02:18:08;101982.63;;;17.98;79.17
20909;BME280;10614;53.198;6.570;2023-07-08T02:20:11;101977.44;;;17.95;80.01
20909;BME280;10614;53.198;6.570;2023-07-08T02:22:13;101974.94;;;17.92;79.97
20909;BME280;10614;53.198;6.570;2023-07-08T02:24:15;101959.19;;;17.87;79.80
20909;BME280;10614;53.198;6.570;2023-07-08T02:26:17;101959.97;;;17.89;79.93
20909;BME280;10614;53.198;6.570;2023-07-08T02:28:20;101960.06;;;17.88;80.50
20909;BME280;10614;53.198;6.570;2023-07-08T02:30:22;101954.72;;;17.88;80.03
20909;BME280;10614;53.198;6.570;2023-07-08T02:32:24;101946.19;;;17.81;80.88
20909;BME280;10614;53.198;6.570;2023-07-08T02:34:24;101947.09;;;17.82;80.96
20909;BME280;10614;53.198;6.570;2023-07-08T02:36:26;101948.16;;;17.78;80.65
20909;BME280;10614;53.198;6.570;2023-07-08T02:38:28;101949.84;;;17.79;81.29
20909;BME280;10614;53.198;6.570;2023-07-08T02:40:30;101954.50;;;17.75;81.70
20909;BME280;10614;53.198;6.570;2023-07-08T02:42:32;101949.06;;;17.77;81.37
20909;BME280;10614;53.198;6.570;2023-07-08T02:44:35;101945.63;;;17.75;81.24
20909;BME280;10614;53.198;6.570;2023-07-08T02:46:36;101954.56;;;17.73;81.46
20909;BME280;10614;53.198;6.570;2023-07-08T02:48:38;101951.03;;;17.73;80.76
20909;BME280;10614;53.198;6.570;2023-07-08T02:50:40;101947.66;;;17.69;81.68
20909;BME280;10614;53.198;6.570;2023-07-08T02:52:42;101946.13;;;17.65;81.46
20909;BME280;10614;53.198;6.570;2023-07-08T02:54:44;101949.88;;;17.61;81.32
20909;BME280;10614;53.198;6.570;2023-07-08T02:56:46;101944.56;;;17.61;82.75
20909;BME280;10614;53.198;6.570;2023-07-08T02:58:48;101953.66;;;17.57;82.13
20909;BME280;10614;53.198;6.570;2023-07-08T03:00:52;101947.69;;;17.52;82.74
20909;BME280;10614;53.198;6.570;2023-07-08T03:02:54;101948.72;;;17.49;83.55
20909;BME280;10614;53.198;6.570;2023-07-08T03:04:59;101941.81;;;17.45;83.21
20909;BME280;10614;53.198;6.570;2023-07-08T03:07:01;101924.53;;;17.37;84.14
20909;BME280;10614;53.198;6.570;2023-07-08T03:09:03;101937.53;;;17.43;83.26
20909;BME280;10614;53.198;6.570;2023-07-08T03:11:06;101941.03;;;17.43;84.61
20909;BME280;10614;53.198;6.570;2023-07-08T03:13:09;101933.28;;;17.39;84.46
20909;BME280;10614;53.198;6.570;2023-07-08T03:15:11;101936.66;;;17.42;84.01
20909;BME280;10614;53.198;6.570;2023-07-08T03:17:15;101942.00;;;17.42;83.93
20909;BME280;10614;53.198;6.570;2023-07-08T03:19:19;101934.88;;;17.43;85.14
20909;BME280;10614;53.198;6.570;2023-07-08T03:21:21;101927.19;;;17.37;84.38
20909;BME280;10614;53.198;6.570;2023-07-08T03:23:23;101927.34;;;17.34;84.84
20909;BME280;10614;53.198;6.570;2023-07-08T03:25:25;101930.63;;;17.39;85.77
20909;BME280;10614;53.198;6.570;2023-07-08T03:27:27;101929.78;;;17.38;84.91
20909;BME280;10614;53.198;6.570;2023-07-08T03:29:28;101925.31;;;17.39;85.81
20909;BME280;10614;53.198;6.570;2023-07-08T03:31:30;101918.28;;;17.38;85.86
20909;BME280;10614;53.198;6.570;2023-07-08T03:33:33;101921.84;;;17.37;85.94
20909;BME280;10614;53.198;6.570;2023-07-08T03:35:35;101928.06;;;17.37;85.67
20909;BME280;10614;53.198;6.570;2023-07-08T03:37:39;101918.56;;;17.32;85.51
20909;BME280;10614;53.198;6.570;2023-07-08T03:39:40;101929.06;;;17.35;86.84
20909;BME280;10614;53.198;6.570;2023-07-08T03:41:42;101917.78;;;17.29;86.76
20909;BME280;10614;53.198;6.570;2023-07-08T03:43:44;101915.75;;;17.35;86.33
20909;BME280;10614;53.198;6.570;2023-07-08T03:45:46;101909.81;;;17.29;86.69
20909;BME280;10614;53.198;6.570;2023-07-08T03:47:48;101916.69;;;17.34;87.36
20909;BME280;10614;53.198;6.570;2023-07-08T03:49:51;101903.56;;;17.30;87.92
20909;BME280;10614;53.198;6.570;2023-07-08T03:51:54;101910.59;;;17.32;87.33
20909;BME280;10614;53.198;6.570;2023-07-08T03:53:56;101913.31;;;17.30;87.88
20909;BME280;10614;53.198;6.570;2023-07-08T03:55:58;101913.25;;;17.32;87.46
20909;BME280;10614;53.198;6.570;2023-07-08T03:57:59;101914.22;;;17.30;88.04
20909;BME280;10614;53.198;6.570;2023-07-08T04:00:01;101903.69;;;17.27;87.92
20909;BME280;10614;53.198;6.570;2023-07-08T04:02:04;101916.63;;;17.35;87.59
20909;BME280;10614;53.198;6.570;2023-07-08T04:04:08;101907.88;;;17.33;87.71
20909;BME280;10614;53.198;6.570;2023-07-08T04:06:10;101905.19;;;17.33;88.46
20909;BME280;10614;53.198;6.570;2023-07-08T04:08:12;101904.41;;;17.31;87.55
20909;BME280;10614;53.198;6.570;2023-07-08T04:10:15;101907.94;;;17.32;88.35
20909;BME280;10614;53.198;6.570;2023-07-08T04:12:17;101909.75;;;17.31;88.48
20909;BME280;10614;53.198;6.570;2023-07-08T04:14:19;101903.81;;;17.26;87.82
20909;BME280;10614;53.198;6.570;2023-07-08T04:16:24;101912.41;;;17.31;88.54
20909;BME280;10614;53.198;6.570;2023-07-08T04:18:28;101911.38;;;17.34;87.63
20909;BME280;10614;53.198;6.570;2023-07-08T04:20:30;101908.72;;;17.34;88.01
20909;BME280;10614;53.198;6.570;2023-07-08T04:22:35;101912.34;;;17.33;88.07
20909;BME280;10614;53.198;6.570;2023-07-08T04:24:36;101919.44;;;17.32;87.93
20909;BME280;10614;53.198;6.570;2023-07-08T04:26:38;101915.84;;;17.33;88.77
20909;BME280;10614;53.198;6.570;2023-07-08T04:28:41;101921.97;;;17.35;88.38
20909;BME280;10614;53.198;6.570;2023-07-08T04:30:43;101931.81;;;17.33;88.07
20909;BME280;10614;53.198;6.570;2023-07-08T04:32:44;101923.84;;;17.33;88.59
20909;BME280;10614;53.198;6.570;2023-07-08T04:34:46;101932.59;;;17.35;89.36
20909;BME280;10614;53.198;6.570;2023-07-08T04:36:48;101943.31;;;17.34;89.34
20909;BME280;10614;53.198;6.570;2023-07-08T04:38:51;101933.47;;;17.36;89.14
20909;BME280;10614;53.198;6.570;2023-07-08T04:40:54;101943.16;;;17.37;88.61
20909;BME280;10614;53.198;6.570;2023-07-08T04:42:57;101922.03;;;17.34;88.17
20909;BME280;10614;53.198;6.570;2023-07-08T04:45:07;101935.78;;;17.42;88.46
20909;BME280;10614;53.198;6.570;2023-07-08T04:47:09;101929.59;;;17.41;88.13
20909;BME280;10614;53.198;6.570;2023-07-08T04:49:14;101926.88;;;17.43;88.15
20909;BME280;10614;53.198;6.570;2023-07-08T04:51:15;101931.97;;;17.47;88.90
20909;BME280;10614;53.198;6.570;2023-07-08T04:53:16;101930.94;;;17.50;88.04
20909;BME280;10614;53.198;6.570;2023-07-08T04:55:19;101932.59;;;17.52;87.84
20909;BME280;10614;53.198;6.570;2023-07-08T04:57:21;101927.31;;;17.51;88.64
20909;BME280;10614;53.198;6.570;2023-07-08T04:59:25;101925.31;;;17.56;88.57
20909;BME280;10614;53.198;6.570;2023-07-08T05:01:27;101934.94;;;17.59;88.51
20909;BME280;10614;53.198;6.570;2023-07-08T05:03:28;101922.66;;;17.56;88.62
20909;BME280;10614;53.198;6.570;2023-07-08T05:05:30;101939.25;;;17.61;88.04
20909;BME280;10614;53.198;6.570;2023-07-08T05:07:32;101930.06;;;17.67;87.54
20909;BME280;10614;53.198;6.570;2023-07-08T05:09:34;101928.41;;;17.64;87.92
20909;BME280;10614;53.198;6.570;2023-07-08T05:11:37;101927.16;;;17.71;88.35
20909;BME280;10614;53.198;6.570;2023-07-08T05:13:39;101922.59;;;17.73;87.83
20909;BME280;10614;53.198;6.570;2023-07-08T05:15:41;101895.13;;;17.56;87.58
20909;BME280;10614;53.198;6.570;2023-07-08T05:17:43;101934.91;;;17.76;87.78
20909;BME280;10614;53.198;6.570;2023-07-08T05:19:45;101935.63;;;17.80;87.17
20909;BME280;10614;53.198;6.570;2023-07-08T05:21:51;101935.47;;;17.83;87.63
20909;BME280;10614;53.198;6.570;2023-07-08T05:23:54;101938.84;;;17.86;87.68
20909;BME280;10614;53.198;6.570;2023-07-08T05:25:59;101929.81;;;17.89;87.03
20909;BME280;10614;53.198;6.570;2023-07-08T05:28:03;101926.28;;;17.88;87.95
20909;BME280;10614;53.198;6.570;2023-07-08T05:30:06;101925.00;;;17.96;87.25
20909;BME280;10614;53.198;6.570;2023-07-08T05:32:08;101925.72;;;17.99;87.76
20909;BME280;10614;53.198;6.570;2023-07-08T05:34:10;101916.88;;;17.99;87.33
20909;BME280;10614;53.198;6.570;2023-07-08T05:36:12;101922.63;;;18.07;86.59
20909;BME280;10614;53.198;6.570;2023-07-08T05:38:14;101911.97;;;18.07;86.81
20909;BME280;10614;53.198;6.570;2023-07-08T05:40:16;101914.56;;;18.08;86.92
20909;BME280;10614;53.198;6.570;2023-07-08T05:42:18;101925.81;;;18.13;87.71
20909;BME280;10614;53.198;6.570;2023-07-08T05:44:21;101917.84;;;18.13;86.31
20909;BME280;10614;53.198;6.570;2023-07-08T05:46:23;101926.34;;;18.20;86.83
20909;BME280;10614;53.198;6.570;2023-07-08T05:48:25;101913.03;;;18.20;86.48
20909;BME280;10614;53.198;6.570;2023-07-08T05:50:27;101918.88;;;18.27;87.08
20909;BME280;10614;53.198;6.570;2023-07-08T05:52:29;101918.72;;;18.30;86.19
20909;BME280;10614;53.198;6.570;2023-07-08T05:54:33;101918.53;;;18.33;86.29
20909;BME280;10614;53.198;6.570;2023-07-08T05:56:35;101916.50;;;18.38;86.14
20909;BME280;10614;53.198;6.570;2023-07-08T05:58:37;101911.91;;;18.40;86.65
20909;BME280;10614;53.198;6.570;2023-07-08T06:00:41;101912.69;;;18.42;86.67
20909;BME280;10614;53.198;6.570;2023-07-08T06:02:42;101910.97;;;18.41;86.39
20909;BME280;10614;53.198;6.570;2023-07-08T06:04:46;101912.44;;;18.47;85.70
20909;BME280;10614;53.198;6.570;2023-07-08T06:06:48;101923.44;;;18.56;85.46
20909;BME280;10614;53.198;6.570;2023-07-08T06:08:50;101917.16;;;18.58;85.84
20909;BME280;10614;53.198;6.570;2023-07-08T06:10:57;101913.47;;;18.60;85.31
20909;BME280;10614;53.198;6.570;2023-07-08T06:12:59;101909.84;;;18.61;85.71
20909;BME280;10614;53.198;6.570;2023-07-08T06:15:00;101916.47;;;18.70;85.81
20909;BME280;10614;53.198;6.570;2023-07-08T06:17:05;101915.41;;;18.72;85.18
20909;BME280;10614;53.198;6.570;2023-07-08T06:19:10;101914.25;;;18.78;85.23
20909;BME280;10614;53.198;6.570;2023-07-08T06:21:12;101908.75;;;18.81;85.32
20909;BME280;10614;53.198;6.570;2023-07-08T06:23:13;101905.13;;;18.82;84.63
20909;BME280;10614;53.198;6.570;2023-07-08T06:25:16;101905.72;;;18.87;84.30
20909;BME280;10614;53.198;6.570;2023-07-08T06:27:18;101907.34;;;18.90;84.56
20909;BME280;10614;53.198;6.570;2023-07-08T06:29:21;101900.22;;;18.90;84.12
20909;BME280;10614;53.198;6.570;2023-07-08T06:31:23;101908.78;;;18.95;84.26
20909;BME280;10614;53.198;6.570;2023-07-08T06:33:27;101912.31;;;18.96;83.91
20909;BME280;10614;53.198;6.570;2023-07-08T06:35:31;101907.75;;;18.98;83.46
20909;BME280;10614;53.198;6.570;2023-07-08T06:37:33;101909.22;;;19.04;83.62
20909;BME280;10614;53.198;6.570;2023-07-08T06:39:35;101902.84;;;19.06;83.57
20909;BME280;10614;53.198;6.570;2023-07-08T06:41:35;101901.78;;;19.09;83.58
20909;BME280;10614;53.198;6.570;2023-07-08T06:43:37;101899.72;;;19.14;82.91
20909;BME280;10614;53.198;6.570;2023-07-08T06:45:40;101902.09;;;19.18;83.68
20909;BME280;10614;53.198;6.570;2023-07-08T06:47:41;101893.81;;;19.23;83.51
20909;BME280;10614;53.198;6.570;2023-07-08T06:49:45;101895.25;;;19.29;84.12
20909;BME280;10614;53.198;6.570;2023-07-08T06:51:48;101887.84;;;19.34;83.02
20909;BME280;10614;53.198;6.570;2023-07-08T06:53:50;101890.22;;;19.38;83.69
20909;BME280;10614;53.198;6.570;2023-07-08T06:55:52;101883.75;;;19.43;83.11
20909;BME280;10614;53.198;6.570;2023-07-08T06:57:55;101887.00;;;19.48;83.69
20909;BME280;10614;53.198;6.570;2023-07-08T06:59:57;101890.25;;;19.53;83.33
20909;BME280;10614;53.198;6.570;2023-07-08T07:02:00;101884.53;;;19.59;82.93
20909;BME280;10614;53.198;6.570;2023-07-08T07:04:02;101881.69;;;19.62;82.75
20909;BME280;10614;53.198;6.570;2023-07-08T07:06:05;101882.19;;;19.69;82.25
20909;BME280;10614;53.198;6.570;2023-07-08T07:08:07;101880.28;;;19.71;81.81
20909;BME280;10614;53.198;6.570;2023-07-08T07:10:09;101872.25;;;19.71;81.66
20909;BME280;10614;53.198;6.570;2023-07-08T07:12:11;101876.19;;;19.79;82.07
20909;BME280;10614;53.198;6.570;2023-07-08T07:14:13;101887.22;;;19.88;82.02
20909;BME280;10614;53.198;6.570;2023-07-08T07:16:15;101876.38;;;19.91;81.72
20909;BME280;10614;53.198;6.570;2023-07-08T07:18:17;101883.97;;;19.97;82.16
20909;BME280;10614;53.198;6.570;2023-07-08T07:20:19;101878.34;;;20.01;80.93
20909;BME280;10614;53.198;6.570;2023-07-08T07:22:23;101879.78;;;20.07;81.15
20909;BME280;10614;53.198;6.570;2023-07-08T07:24:25;101875.00;;;20.12;81.13
20909;BME280;10614;53.198;6.570;2023-07-08T07:26:26;101872.88;;;20.17;81.00
20909;BME280;10614;53.198;6.570;2023-07-08T07:28:28;101876.03;;;20.24;80.46
20909;BME280;10614;53.198;6.570;2023-07-08T07:30:30;101871.53;;;20.24;80.25
20909;BME280;10614;53.198;6.570;2023-07-08T07:32:32;101877.34;;;20.31;79.83
20909;BME280;10614;53.198;6.570;2023-07-08T07:34:35;101884.09;;;20.37;80.08
20909;BME280;10614;53.198;6.570;2023-07-08T07:36:37;101881.25;;;20.40;79.44
20909;BME280;10614;53.198;6.570;2023-07-08T07:38:40;101880.81;;;20.46;79.30
20909;BME280;10614;53.198;6.570;2023-07-08T07:40:42;101879.13;;;20.45;79.73
20909;BME280;10614;53.198;6.570;2023-07-08T07:42:46;101883.97;;;20.53;79.57
20909;BME280;10614;53.198;6.570;2023-07-08T07:44:48;101883.53;;;20.60;79.88
20909;BME280;10614;53.198;6.570;2023-07-08T07:46:49;101872.59;;;20.63;79.83
20909;BME280;10614;53.198;6.570;2023-07-08T07:48:51;101870.25;;;20.72;79.60
20909;BME280;10614;53.198;6.570;2023-07-08T07:50:54;101873.50;;;20.77;79.43
20909;BME280;10614;53.198;6.570;2023-07-08T07:52:56;101866.03;;;20.82;79.15
20909;BME280;10614;53.198;6.570;2023-07-08T07:54:59;101861.22;;;20.87;78.66
20909;BME280;10614;53.198;6.570;2023-07-08T07:57:01;101868.72;;;20.95;78.36
20909;BME280;10614;53.198;6.570;2023-07-08T07:59:03;101863.81;;;21.01;78.19
20909;BME280;10614;53.198;6.570;2023-07-08T08:01:05;101858.25;;;21.04;77.68
20909;BME280;10614;53.198;6.570;2023-07-08T08:03:07;101859.44;;;21.13;76.84
20909;BME280;10614;53.198;6.570;2023-07-08T08:05:09;101858.91;;;21.21;76.84
20909;BME280;10614;53.198;6.570;2023-07-08T08:07:11;101852.38;;;21.25;76.57
20909;BME280;10614;53.198;6.570;2023-07-08T08:09:14;101868.03;;;21.31;76.71
20909;BME280;10614;53.198;6.570;2023-07-08T08:11:19;101867.72;;;21.36;76.39
20909;BME280;10614;53.198;6.570;2023-07-08T08:13:21;101863.13;;;21.38;76.57
20909;BME280;10614;53.198;6.570;2023-07-08T08:15:24;101870.97;;;21.41;75.96
20909;BME280;10614;53.198;6.570;2023-07-08T08:17:26;101861.75;;;21.45;75.83
20909;BME280;10614;53.198;6.570;2023-07-08T08:19:28;101872.03;;;21.51;75.53
20909;BME280;10614;53.198;6.570;2023-07-08T08:21:30;101872.88;;;21.52;75.42
20909;BME280;10614;53.198;6.570;2023-07-08T08:23:32;101876.88;;;21.59;74.71
20909;BME280;10614;53.198;6.570;2023-07-08T08:25:34;101871.19;;;21.63;75.00
20909;BME280;10614;53.198;6.570;2023-07-08T08:27:37;101867.53;;;21.64;74.66
20909;BME280;10614;53.198;6.570;2023-07-08T08:29:39;101875.88;;;21.73;74.23
20909;BME280;10614;53.198;6.570;2023-07-08T08:31:41;101875.44;;;21.79;74.77
20909;BME280;10614;53.198;6.570;2023-07-08T08:33:42;101882.31;;;21.83;74.18
20909;BME280;10614;53.198;6.570;2023-07-08T08:35:44;101873.81;;;21.89;73.75
20909;BME280;10614;53.198;6.570;2023-07-08T08:37:46;101870.59;;;21.97;72.60
20909;BME280;10614;53.198;6.570;2023-07-08T08:39:48;101871.88;;;22.04;72.35
20909;BME280;10614;53.198;6.570;2023-07-08T08:41:50;101868.72;;;22.10;72.29
20909;BME280;10614;53.198;6.570;2023-07-08T08:43:56;101870.22;;;22.14;70.65
20909;BME280;10614;53.198;6.570;2023-07-08T08:46:04;101874.31;;;22.20;70.26
20909;BME280;10614;53.198;6.570;2023-07-08T08:48:10;101874.53;;;22.29;69.54
20909;BME280;10614;53.198;6.570;2023-07-08T08:50:32;101867.84;;;22.35;68.96
20909;BME280;10614;53.198;6.570;2023-07-08T08:52:36;101869.84;;;22.44;69.54
20909;BME280;10614;53.198;6.570;2023-07-08T08:54:41;101865.72;;;22.51;69.20
20909;BME280;10614;53.198;6.570;2023-07-08T08:56:51;101861.50;;;22.60;68.68
20909;BME280;10614;53.198;6.570;2023-07-08T08:59:03;101862.66;;;22.69;68.81
20909;BME280;10614;53.198;6.570;2023-07-08T09:01:11;101855.13;;;22.74;68.16
20909;BME280;10614;53.198;6.570;2023-07-08T09:03:14;101860.88;;;22.81;67.86
20909;BME280;10614;53.198;6.570;2023-07-08T09:05:18;101842.09;;;22.81;67.53
20909;BME280;10614;53.198;6.570;2023-07-08T09:07:20;101851.38;;;22.88;65.32
20909;BME280;10614;53.198;6.570;2023-07-08T09:09:29;101854.09;;;22.99;65.22
20909;BME280;10614;53.198;6.570;2023-07-08T09:11:40;101858.91;;;23.07;65.07
20909;BME280;10614;53.198;6.570;2023-07-08T09:13:44;101845.97;;;23.12;64.52
20909;BME280;10614;53.198;6.570;2023-07-08T09:15:48;101841.84;;;23.19;64.85
20909;BME280;10614;53.198;6.570;2023-07-08T09:17:50;101854.06;;;23.23;64.66
20909;BME280;10614;53.198;6.570;2023-07-08T09:19:59;101850.78;;;23.31;63.98
20909;BME280;10614;53.198;6.570;2023-07-08T09:22:09;101840.31;;;23.39;63.99
20909;BME280;10614;53.198;6.570;2023-07-08T09:24:17;101844.81;;;23.50;63.40
20909;BME280;10614;53.198;6.570;2023-07-08T09:26:23;101844.44;;;23.54;62.55
20909;BME280;10614;53.198;6.570;2023-07-08T09:28:36;101841.41;;;23.59;62.15
20909;BME280;10614;53.198;6.570;2023-07-08T09:30:39;101841.66;;;23.67;62.07
20909;BME280;10614;53.198;6.570;2023-07-08T09:32:42;101837.63;;;23.73;62.40
20909;BME280;10614;53.198;6.570;2023-07-08T09:34:46;101840.81;;;23.78;61.77
20909;BME280;10614;53.198;6.570;2023-07-08T09:36:49;101839.59;;;23.82;61.16
20909;BME280;10614;53.198;6.570;2023-07-08T09:38:52;101844.97;;;23.93;60.88
20909;BME280;10614;53.198;6.570;2023-07-08T09:40:54;101853.25;;;24.01;60.60
20909;BME280;10614;53.198;6.570;2023-07-08T09:43:01;101850.81;;;24.10;60.24
20909;BME280;10614;53.198;6.570;2023-07-08T09:45:12;101845.78;;;24.16;60.47
20909;BME280;10614;53.198;6.570;2023-07-08T09:47:21;101846.38;;;24.20;59.66
20909;BME280;10614;53.198;6.570;2023-07-08T09:49:27;101844.31;;;24.23;59.82
20909;BME280;10614;53.198;6.570;2023-07-08T09:51:30;101839.13;;;24.32;59.84
20909;BME280;10614;53.198;6.570;2023-07-08T09:53:33;101837.91;;;24.36;59.27
20909;BME280;10614;53.198;6.570;2023-07-08T09:55:35;101792.09;;;24.15;59.30
20909;BME280;10614;53.198;6.570;2023-07-08T09:57:38;101783.03;;;24.16;59.28
20909;BME280;10614;53.198;6.570;2023-07-08T09:59:46;101820.00;;;24.46;59.13
20909;BME280;10614;53.198;6.570;2023-07-08T10:01:48;101835.88;;;24.60;59.15
20909;BME280;10614;53.198;6.570;2023-07-08T10:03:57;101828.53;;;24.62;58.93
20909;BME280;10614;53.198;6.570;2023-07-08T10:06:04;101811.41;;;24.63;58.53
20909;BME280;10614;53.198;6.570;2023-07-08T10:08:13;101813.50;;;24.81;57.86
20909;BME280;10614;53.198;6.570;2023-07-08T10:10:18;101843.19;;;25.12;57.72
20909;BME280;10614;53.198;6.570;2023-07-08T10:12:24;101829.63;;;25.13;57.19
20909;BME280;10614;53.198;6.570;2023-07-08T10:14:31;101809.91;;;25.13;57.77
20909;BME280;10614;53.198;6.570;2023-07-08T10:16:34;101823.19;;;25.25;57.05
20909;BME280;10614;53.198;6.570;2023-07-08T10:18:36;101802.75;;;25.23;56.46
20909;BME280;10614;53.198;6.570;2023-07-08T10:20:46;101795.97;;;25.28;56.25
20909;BME280;10614;53.198;6.570;2023-07-08T10:23:01;101758.13;;;25.09;55.96
20909;BME280;10614;53.198;6.570;2023-07-08T10:25:24;101783.69;;;25.36;56.04
20909;BME280;10614;53.198;6.570;2023-07-08T10:27:35;101829.22;;;25.69;55.77
20909;BME280;10614;53.198;6.570;2023-07-08T10:29:44;101742.06;;;25.28;55.69
20909;BME280;10614;53.198;6.570;2023-07-08T10:31:56;101764.47;;;25.60;55.04
20909;BME280;10614;53.198;6.570;2023-07-08T10:34:10;101819.00;;;26.04;54.97
20909;BME280;10614;53.198;6.570;2023-07-08T10:36:23;101778.59;;;25.83;54.85
20909;BME280;10614;53.198;6.570;2023-07-08T10:38:43;101806.50;;;26.13;55.07
20909;BME280;10614;53.198;6.570;2023-07-08T10:40:48;101822.44;;;26.35;54.80
20909;BME280;10614;53.198;6.570;2023-07-08T10:43:02;101802.28;;;26.29;54.33
20909;BME280;10614;53.198;6.570;2023-07-08T10:45:10;101833.97;;;26.57;54.48
20909;BME280;10614;53.198;6.570;2023-07-08T10:47:23;101797.00;;;26.47;53.88